Time;durP1;ratioP1;P1;durP2;ratioP2;P2;SDS_P1;SDS_P2;PMS_P1;PMS_P2;Temp;Humidity;BMP_temperature;BMP_pressure;BME280_temperature;BME280_humidity;BME280_pressure;Samples;Min_cycle;Max_cycle;Signal;HPM_P1;HPM_P2
2021/10/25 00:02:04;;;;;;;9.13;6.72;;;6.70;99.90;;;;;;5088064;28;20085;-44
2021/10/25 00:04:30;;;;;;;8.00;6.32;;;6.70;99.90;;;;;;5088299;28;20115;-45
2021/10/25 00:06:56;;;;;;;6.60;5.93;;;6.60;99.90;;;;;;5088263;28;20036;-44
2021/10/25 00:09:22;;;;;;;7.95;6.53;;;6.60;99.90;;;;;;5087508;28;20059;-43
2021/10/25 00:11:48;;;;;;;9.27;5.93;;;6.60;99.90;;;;;;5088246;28;20048;-44
2021/10/25 00:14:17;;;;;;;8.43;6.50;;;6.60;99.90;;;;;;5088389;28;20456;-43
2021/10/25 00:16:43;;;;;;;7.15;6.30;;;6.60;99.90;;;;;;5087665;28;20488;-44
2021/10/25 00:19:10;;;;;;;7.28;5.82;;;6.60;99.90;;;;;;5088067;28;20031;-44
2021/10/25 00:21:36;;;;;;;7.82;5.90;;;6.60;99.90;;;;;;5087454;28;20028;-43
2021/10/25 00:24:02;;;;;;;8.75;7.35;;;6.60;99.90;;;;;;5088012;28;20079;-44
2021/10/25 00:26:28;;;;;;;7.95;6.25;;;6.60;99.90;;;;;;5088294;28;20020;-44
2021/10/25 00:28:54;;;;;;;8.60;6.55;;;6.60;99.90;;;;;;5087507;28;20440;-44
2021/10/25 00:31:19;;;;;;;9.88;6.38;;;6.60;99.90;;;;;;5088068;28;20047;-43
2021/10/25 00:33:45;;;;;;;7.47;6.30;;;6.60;99.90;;;;;;5087672;28;20544;-44
2021/10/25 00:36:11;;;;;;;8.10;6.25;;;6.60;99.90;;;;;;5087122;28;20028;-44
2021/10/25 00:38:37;;;;;;;8.98;6.68;;;6.60;99.90;;;;;;5088030;28;20020;-43
2021/10/25 00:41:03;;;;;;;7.63;6.53;;;6.60;99.90;;;;;;5087388;28;20040;-43
2021/10/25 00:43:29;;;;;;;8.25;6.63;;;6.60;99.90;;;;;;5087224;28;20532;-43
2021/10/25 00:45:55;;;;;;;8.13;6.68;;;6.50;99.90;;;;;;5087464;28;20107;-43
2021/10/25 00:48:21;;;;;;;9.65;6.45;;;6.50;99.90;;;;;;5087991;28;20047;-44
2021/10/25 00:50:46;;;;;;;10.45;6.70;;;6.50;99.90;;;;;;5086401;28;20714;-43
2021/10/25 00:53:12;;;;;;;9.30;6.65;;;6.50;99.90;;;;;;5088261;28;20589;-44
2021/10/25 00:55:39;;;;;;;9.90;7.60;;;6.50;99.90;;;;;;5087463;28;20035;-43
2021/10/25 00:58:05;;;;;;;9.20;6.90;;;6.40;99.90;;;;;;5086938;28;20467;-43
2021/10/25 01:00:32;;;;;;;8.52;7.05;;;6.40;99.90;;;;;;5087538;28;20028;-43
2021/10/25 01:02:58;;;;;;;7.70;6.50;;;6.40;99.90;;;;;;5087323;28;20379;-44
2021/10/25 01:05:24;;;;;;;9.50;6.65;;;6.40;99.90;;;;;;5086767;28;20024;-43
2021/10/25 01:07:50;;;;;;;9.75;7.05;;;6.30;99.90;;;;;;5087497;28;20023;-43
2021/10/25 01:10:17;;;;;;;10.70;7.05;;;6.40;99.90;;;;;;5087616;28;20035;-44
2021/10/25 01:12:43;;;;;;;7.63;6.30;;;6.30;99.90;;;;;;5086394;28;20508;-44
2021/10/25 01:15:09;;;;;;;8.40;6.63;;;6.40;99.90;;;;;;5087560;28;20035;-44
2021/10/25 01:17:35;;;;;;;8.95;6.90;;;6.30;99.90;;;;;;5087033;28;20372;-44
2021/10/25 01:20:00;;;;;;;8.20;6.70;;;6.30;99.90;;;;;;5087040;28;20064;-43
2021/10/25 01:22:26;;;;;;;8.75;6.55;;;6.30;99.90;;;;;;5087117;28;20050;-43
2021/10/25 01:24:53;;;;;;;8.43;7.05;;;6.30;99.90;;;;;;5086730;28;20028;-44
2021/10/25 01:27:20;;;;;;;9.93;6.50;;;6.30;99.90;;;;;;5087537;28;20127;-44
2021/10/25 01:29:46;;;;;;;7.85;6.95;;;6.30;99.90;;;;;;5087146;28;20056;-43
2021/10/25 01:32:11;;;;;;;9.68;6.53;;;6.30;99.90;;;;;;5086612;28;20109;-43
2021/10/25 01:34:37;;;;;;;9.25;6.82;;;6.30;99.90;;;;;;5087234;28;20028;-45
2021/10/25 01:37:05;;;;;;;7.38;6.45;;;6.30;99.90;;;;;;5087207;28;20028;-44
2021/10/25 01:39:31;;;;;;;6.95;6.18;;;6.30;99.90;;;;;;5086915;28;20399;-43
2021/10/25 01:41:57;;;;;;;7.90;5.93;;;6.30;99.90;;;;;;5090873;28;20030;-43
2021/10/25 01:44:22;;;;;;;7.95;6.03;;;6.30;99.90;;;;;;5091033;28;20016;-44
2021/10/25 01:46:48;;;;;;;8.10;6.45;;;6.30;99.90;;;;;;5090601;28;20035;-43
2021/10/25 01:49:15;;;;;;;8.45;6.55;;;6.30;99.90;;;;;;5090896;28;20009;-42
2021/10/25 01:51:41;;;;;;;8.13;6.10;;;6.30;99.90;;;;;;5091149;28;20020;-44
2021/10/25 01:54:07;;;;;;;8.73;6.32;;;6.30;99.90;;;;;;5090019;28;20436;-43
2021/10/25 01:56:33;;;;;;;9.77;6.70;;;6.30;99.90;;;;;;5091115;28;20740;-44
2021/10/25 01:59:01;;;;;;;9.75;6.80;;;6.40;99.90;;;;;;5090664;28;20024;-44
2021/10/25 02:01:27;;;;;;;7.78;6.65;;;6.50;99.90;;;;;;5090083;28;20032;-45
2021/10/25 02:03:52;;;;;;;6.97;6.28;;;6.50;99.90;;;;;;5090491;28;20357;-44
2021/10/25 02:06:18;;;;;;;8.43;6.43;;;6.70;99.90;;;;;;5091049;28;20032;-44
2021/10/25 02:08:44;;;;;;;7.70;6.47;;;6.80;99.90;;;;;;5089420;28;20027;-43
2021/10/25 02:11:09;;;;;;;7.95;6.57;;;6.90;99.90;;;;;;5090834;28;20024;-43
2021/10/25 02:13:35;;;;;;;7.50;6.18;;;7.00;99.90;;;;;;5090479;28;20563;-43
2021/10/25 02:16:01;;;;;;;8.45;6.38;;;7.10;99.90;;;;;;5089846;28;20020;-43
2021/10/25 02:18:27;;;;;;;7.47;6.65;;;7.20;99.90;;;;;;5090224;28;20041;-44
2021/10/25 02:20:55;;;;;;;7.32;5.90;;;7.20;99.90;;;;;;5090331;28;20433;-43
2021/10/25 02:23:20;;;;;;;8.95;6.15;;;7.30;99.90;;;;;;5090735;28;20342;-43
2021/10/25 02:25:48;;;;;;;8.18;6.40;;;7.40;99.90;;;;;;5090194;28;20475;-44
2021/10/25 02:28:13;;;;;;;9.98;6.43;;;7.40;99.90;;;;;;5089774;28;20032;-44
2021/10/25 02:30:39;;;;;;;8.07;5.82;;;7.50;99.90;;;;;;5089822;28;20032;-43
2021/10/25 02:33:04;;;;;;;7.22;6.05;;;7.50;99.90;;;;;;5090302;28;20028;-43
2021/10/25 02:35:30;;;;;;;7.50;5.97;;;7.60;99.90;;;;;;5089404;28;20042;-43
2021/10/25 02:37:57;;;;;;;8.05;5.90;;;7.60;99.90;;;;;;5090208;28;20024;-43
2021/10/25 02:40:25;;;;;;;8.23;5.88;;;7.70;99.90;;;;;;5089776;28;20032;-43
2021/10/25 02:42:51;;;;;;;8.95;6.65;;;7.80;99.90;;;;;;5069065;28;20036;-43
2021/10/25 02:45:17;;;;;;;7.75;6.13;;;7.80;99.90;;;;;;5084016;28;20119;-43
2021/10/25 02:47:43;;;;;;;8.25;6.22;;;7.80;99.90;;;;;;5089866;28;20051;-43
2021/10/25 02:50:08;;;;;;;8.88;6.07;;;7.90;99.90;;;;;;5089520;28;20443;-43
2021/10/25 02:52:34;;;;;;;8.93;6.10;;;7.90;99.90;;;;;;5089020;28;20027;-44
2021/10/25 02:54:59;;;;;;;7.40;6.00;;;7.90;99.90;;;;;;5089153;28;20036;-43
2021/10/25 02:57:25;;;;;;;6.90;5.93;;;8.00;99.90;;;;;;5088540;28;20075;-45
2021/10/25 02:59:50;;;;;;;6.47;5.80;;;8.00;99.90;;;;;;5089359;28;20383;-44
2021/10/25 03:02:16;;;;;;;7.63;6.10;;;8.00;99.90;;;;;;5089732;28;20035;-44
2021/10/25 03:04:41;;;;;;;8.55;5.95;;;8.10;99.90;;;;;;5088754;28;20032;-43
2021/10/25 03:07:07;;;;;;;6.68;5.50;;;8.10;99.90;;;;;;5089580;28;20024;-43
2021/10/25 03:09:32;;;;;;;6.78;6.05;;;8.10;99.90;;;;;;5089578;28;20483;-44
2021/10/25 03:11:58;;;;;;;6.15;5.32;;;8.20;99.90;;;;;;5088640;28;20020;-44
2021/10/25 03:14:24;;;;;;;6.97;5.38;;;8.10;99.90;;;;;;5089302;28;20440;-44
2021/10/25 03:16:49;;;;;;;7.40;5.75;;;8.20;99.90;;;;;;5089253;28;20498;-43
2021/10/25 03:19:15;;;;;;;8.65;6.00;;;8.20;99.90;;;;;;5088779;28;20036;-44
2021/10/25 03:21:40;;;;;;;8.05;5.80;;;8.30;99.90;;;;;;5089086;28;20059;-44
2021/10/25 03:24:09;;;;;;;8.80;6.05;;;8.30;99.90;;;;;;5089419;28;20062;-43
2021/10/25 03:26:37;;;;;;;6.30;5.07;;;8.30;99.90;;;;;;5088489;28;20021;-43
2021/10/25 03:29:03;;;;;;;6.03;4.70;;;8.30;99.90;;;;;;5089385;28;20047;-44
2021/10/25 03:31:29;;;;;;;6.32;5.47;;;8.40;99.90;;;;;;5088268;28;20415;-43
2021/10/25 03:33:54;;;;;;;6.88;5.82;;;8.40;99.90;;;;;;5089065;28;20055;-43
2021/10/25 03:36:24;;;;;;;7.15;5.32;;;8.40;99.90;;;;;;5088752;28;20038;-44
2021/10/25 03:38:50;;;;;;;6.40;5.80;;;8.40;99.90;;;;;;5088547;28;20051;-43
2021/10/25 03:41:20;;;;;;;7.38;5.70;;;8.50;99.90;;;;;;5088395;28;20468;-43
2021/10/25 03:43:54;;;;;;;6.55;5.63;;;8.50;99.90;;;;;;5088536;28;20028;-43
2021/10/25 03:46:27;;;;;;;9.23;4.95;;;8.50;99.90;;;;;;5088517;28;20099;-43
2021/10/25 03:48:58;;;;;;;6.78;5.97;;;8.50;99.90;;;;;;5089157;28;20473;-43
2021/10/25 03:51:24;;;;;;;6.63;5.18;;;8.50;99.90;;;;;;5088428;28;20021;-43
2021/10/25 03:54:00;;;;;;;8.02;5.28;;;8.60;99.90;;;;;;5087977;28;20036;-42
2021/10/25 03:56:49;;;;;;;7.88;5.45;;;8.60;99.90;;;;;;5088647;28;20028;-44
2021/10/25 03:59:42;;;;;;;6.80;5.03;;;8.60;99.90;;;;;;5078650;28;20012;-42
2021/10/25 04:26:56;;;;;;;4.32;3.92;;;8.80;99.90;;;;;;5088026;28;20051;-43
2021/10/25 04:29:26;;;;;;;6.22;5.05;;;8.80;99.90;;;;;;5087012;28;20058;-43
2021/10/25 04:31:51;;;;;;;7.20;5.15;;;8.80;99.90;;;;;;5087702;28;20099;-43
2021/10/25 04:34:17;;;;;;;9.02;5.75;;;8.80;99.90;;;;;;5087726;28;20111;-43
2021/10/25 04:36:43;;;;;;;8.68;5.50;;;8.80;99.90;;;;;;5086914;28;20028;-42
2021/10/25 04:39:13;;;;;;;7.40;5.25;;;8.80;99.90;;;;;;5087767;28;20042;-43
2021/10/25 04:41:39;;;;;;;7.72;5.35;;;8.90;99.90;;;;;;5087412;28;20032;-44
2021/10/25 04:44:05;;;;;;;7.30;4.72;;;8.90;99.90;;;;;;5087723;28;20020;-43
2021/10/25 04:46:31;;;;;;;6.53;5.13;;;8.90;99.90;;;;;;5087614;28;20417;-43
2021/10/25 04:48:57;;;;;;;5.65;5.05;;;8.90;99.90;;;;;;5087241;28;20096;-43
2021/10/25 04:51:22;;;;;;;7.47;4.80;;;8.90;99.90;;;;;;5087537;28;20065;-43
2021/10/25 04:53:48;;;;;;;6.32;4.53;;;8.90;99.90;;;;;;5087508;28;20024;-43
2021/10/25 04:56:13;;;;;;;6.80;5.25;;;8.90;99.90;;;;;;5086955;28;20036;-42
2021/10/25 04:58:39;;;;;;;7.65;5.20;;;9.00;99.90;;;;;;5086841;28;20411;-44
2021/10/25 05:01:04;;;;;;;6.03;4.53;;;9.00;99.90;;;;;;5087693;28;20032;-43
2021/10/25 05:03:33;;;;;;;7.15;5.45;;;9.00;99.90;;;;;;5086408;28;20027;-45
2021/10/25 05:06:03;;;;;;;6.50;5.30;;;9.00;99.90;;;;;;5087432;28;20052;-43
2021/10/25 05:08:28;;;;;;;8.55;5.50;;;9.00;99.90;;;;;;5087363;28;20020;-44
2021/10/25 05:10:54;;;;;;;8.95;5.32;;;9.00;99.90;;;;;;5086825;28;20489;-42
2021/10/25 05:13:20;;;;;;;6.32;5.22;;;9.00;99.90;;;;;;5087531;28;20017;-43
2021/10/25 05:15:46;;;;;;;6.35;4.97;;;9.00;99.90;;;;;;5086376;28;20028;-42
2021/10/25 05:18:11;;;;;;;6.90;5.10;;;9.10;99.90;;;;;;5087027;28;20030;-43
2021/10/25 05:20:37;;;;;;;5.68;4.72;;;9.10;99.90;;;;;;5086972;28;20119;-43
2021/10/25 05:23:02;;;;;;;7.68;5.45;;;9.10;99.90;;;;;;5087204;28;20577;-43
2021/10/25 05:25:29;;;;;;;7.32;5.35;;;9.10;99.90;;;;;;5086063;28;20529;-43
2021/10/25 05:27:54;;;;;;;7.00;5.63;;;9.10;99.90;;;;;;5087210;28;20028;-43
2021/10/25 05:30:20;;;;;;;7.50;5.43;;;9.10;99.90;;;;;;5086770;28;20353;-43
2021/10/25 05:32:46;;;;;;;6.15;4.55;;;9.10;99.90;;;;;;5086227;28;20024;-43
2021/10/25 05:35:11;;;;;;;6.72;4.38;;;9.20;99.90;;;;;;5086966;28;20031;-43
2021/10/25 05:37:37;;;;;;;6.35;4.60;;;9.20;99.90;;;;;;5086928;28;20025;-43
2021/10/25 05:40:03;;;;;;;6.90;4.55;;;9.30;99.90;;;;;;5086301;28;20040;-43
2021/10/25 05:42:29;;;;;;;6.50;4.60;;;9.30;99.90;;;;;;5086769;28;20015;-43
2021/10/25 05:44:54;;;;;;;5.70;4.30;;;9.30;99.90;;;;;;5086620;28;20028;-44
2021/10/25 05:47:20;;;;;;;9.07;5.00;;;9.30;99.90;;;;;;5087079;28;20372;-43
2021/10/25 05:49:46;;;;;;;7.97;4.80;;;9.40;99.90;;;;;;5086867;28;20063;-43
2021/10/25 05:52:11;;;;;;;5.32;4.57;;;9.40;99.90;;;;;;5086041;28;20131;-43
2021/10/25 05:54:39;;;;;;;5.50;4.40;;;9.40;99.90;;;;;;5086508;28;20048;-42
2021/10/25 05:57:05;;;;;;;5.10;4.13;;;9.40;99.90;;;;;;5086797;28;20032;-43
2021/10/25 05:59:33;;;;;;;4.70;4.05;;;9.50;99.90;;;;;;5086521;28;20085;-44
2021/10/25 06:02:14;;;;;;;6.75;4.57;;;9.50;99.90;;;;;;5086748;28;20081;-43
2021/10/25 06:04:39;;;;;;;5.65;4.07;;;9.50;99.90;;;;;;5066466;28;20037;-43
2021/10/25 06:07:05;;;;;;;5.10;3.78;;;9.50;99.90;;;;;;5081446;28;20040;-43
2021/10/25 06:09:34;;;;;;;5.65;4.00;;;9.50;99.90;;;;;;5086712;28;20032;-44
2021/10/25 06:12:03;;;;;;;5.30;4.68;;;9.50;99.90;;;;;;5087030;28;20070;-44
2021/10/25 06:14:34;;;;;;;7.25;5.72;;;9.60;99.90;;;;;;5085946;28;20439;-45
2021/10/25 06:17:00;;;;;;;8.23;5.88;;;9.60;99.90;;;;;;5086835;28;20427;-43
2021/10/25 06:19:26;;;;;;;10.27;6.97;;;9.50;99.90;;;;;;5086454;28;20020;-44
2021/10/25 06:21:52;;;;;;;8.52;5.65;;;9.60;99.90;;;;;;5085894;28;20031;-43
2021/10/25 06:24:18;;;;;;;9.00;5.10;;;9.60;99.90;;;;;;5087131;28;20024;-44
2021/10/25 06:26:44;;;;;;;8.20;5.05;;;9.60;99.90;;;;;;5087935;28;20024;-43
2021/10/25 06:29:09;;;;;;;6.78;5.10;;;9.60;99.90;;;;;;5090096;28;20055;-42
2021/10/25 06:31:35;;;;;;;5.70;4.53;;;9.60;99.90;;;;;;5090051;28;20016;-43
2021/10/25 06:34:07;;;;;;;7.68;4.82;;;9.60;99.90;;;;;;5089961;28;20032;-44
2021/10/25 06:36:35;;;;;;;7.22;4.75;;;9.70;99.90;;;;;;5090076;28;20024;-44
2021/10/25 06:39:14;;;;;;;5.95;4.70;;;9.70;99.90;;;;;;5089994;28;20437;-43
2021/10/25 06:41:40;;;;;;;6.80;4.85;;;9.70;99.90;;;;;;5088979;28;20039;-43
2021/10/25 06:44:06;;;;;;;7.65;4.85;;;9.70;99.90;;;;;;5090194;28;20030;-43
2021/10/25 06:46:32;;;;;;;6.55;5.03;;;9.80;99.90;;;;;;5089809;28;20395;-44
2021/10/25 06:48:57;;;;;;;8.95;6.03;;;9.80;99.90;;;;;;5088986;28;20028;-43
2021/10/25 06:51:23;;;;;;;6.78;5.57;;;9.80;99.90;;;;;;5089532;28;20028;-42
2021/10/25 06:53:49;;;;;;;8.30;5.70;;;9.80;99.90;;;;;;5089686;28;20099;-43
2021/10/25 06:56:15;;;;;;;7.82;5.15;;;9.80;99.90;;;;;;5089305;28;20022;-43
2021/10/25 06:58:40;;;;;;;8.30;5.60;;;9.90;99.90;;;;;;5089163;28;20110;-44
2021/10/25 07:01:06;;;;;;;7.97;5.28;;;9.90;99.90;;;;;;5089824;28;20027;-44
2021/10/25 07:03:31;;;;;;;6.95;5.03;;;10.00;99.90;;;;;;5088729;28;20140;-44
2021/10/25 07:06:00;;;;;;;12.63;4.97;;;10.10;99.90;;;;;;5089574;28;20081;-44
2021/10/25 07:08:28;;;;;;;14.80;5.18;;;10.10;99.90;;;;;;5089206;28;20071;-43
2021/10/25 07:10:57;;;;;;;9.65;5.75;;;10.10;99.90;;;;;;5089078;28;20036;-43
2021/10/25 07:13:24;;;;;;;5.68;3.85;;;10.20;99.90;;;;;;5089007;28;20410;-45
2021/10/25 07:15:58;;;;;;;5.78;4.45;;;10.20;99.90;;;;;;5089524;28;20024;-43
2021/10/25 07:18:31;;;;;;;6.82;4.78;;;10.20;99.90;;;;;;5088283;28;20024;-43
2021/10/25 08:11:55;;;;;;;6.63;4.53;;;10.50;99.90;;;;;;5087939;28;20032;-42
2021/10/25 08:14:29;;;;;;;5.55;4.32;;;10.60;99.90;;;;;;5088048;28;20097;-43
2021/10/25 08:16:55;;;;;;;6.68;4.80;;;10.60;99.90;;;;;;5088431;28;20039;-43
2021/10/25 08:19:25;;;;;;;5.13;4.47;;;10.70;99.90;;;;;;5088530;28;20032;-43
2021/10/25 08:21:59;;;;;;;7.50;4.40;;;10.70;99.90;;;;;;5087282;28;20035;-44
2021/10/25 08:24:27;;;;;;;6.03;5.00;;;10.70;99.90;;;;;;5088098;28;20027;-44
2021/10/25 08:26:53;;;;;;;6.03;4.50;;;10.80;99.90;;;;;;5087243;28;20091;-43
2021/10/25 08:29:20;;;;;;;5.63;4.80;;;10.80;99.90;;;;;;5088103;28;20423;-43
2021/10/25 08:31:55;;;;;;;8.85;6.00;;;10.80;99.90;;;;;;5087464;28;20443;-43
2021/10/25 08:42:19;;;;;;;7.25;4.90;;;10.90;99.90;;;;;;5087290;28;20403;-44
2021/10/25 08:44:54;;;;;;;5.88;4.40;;;11.00;99.90;;;;;;5087412;28;20024;-43
2021/10/25 08:47:24;;;;;;;5.05;4.55;;;11.10;99.90;;;;;;5087706;28;20070;-44
2021/10/25 08:49:50;;;;;;;5.65;4.28;;;11.10;99.90;;;;;;5086106;28;20107;-43
2021/10/25 08:52:21;;;;;;;6.28;4.82;;;11.10;99.90;;;;;;5087847;28;20048;-43
2021/10/25 08:54:51;;;;;;;5.95;5.20;;;11.10;99.90;;;;;;5086922;28;20048;-44
2021/10/25 08:57:21;;;;;;;7.93;4.65;;;11.20;99.90;;;;;;5087599;28;20028;-43
2021/10/25 08:59:55;;;;;;;6.85;4.35;;;11.20;99.90;;;;;;5087321;28;20111;-43
2021/10/25 09:02:21;;;;;;;5.63;4.45;;;11.20;99.90;;;;;;5086798;28;20594;-43
2021/10/25 09:05:07;;;;;;;5.00;4.20;;;11.20;99.90;;;;;;5087110;28;20024;-44
2021/10/25 09:07:48;;;;;;;5.88;4.75;;;11.30;99.90;;;;;;5087102;28;20022;-43
2021/10/25 09:10:31;;;;;;;7.97;5.32;;;11.30;99.90;;;;;;5086989;28;20028;-44
2021/10/25 09:13:01;;;;;;;5.72;4.55;;;11.40;99.90;;;;;;5087180;28;20439;-43
2021/10/25 09:15:28;;;;;;;8.70;5.07;;;11.40;99.90;;;;;;5087441;28;20063;-44
2021/10/25 09:17:54;;;;;;;6.70;5.00;;;11.40;99.90;;;;;;5086660;28;20024;-43
2021/10/25 09:20:20;;;;;;;5.20;4.70;;;11.50;99.90;;;;;;5086521;28;20036;-44
2021/10/25 09:22:46;;;;;;;6.70;4.53;;;11.50;99.90;;;;;;5068598;28;20028;-44
2021/10/25 09:25:12;;;;;;;6.18;4.38;;;11.50;99.90;;;;;;5087542;28;20193;-44
2021/10/25 09:27:43;;;;;;;7.65;5.10;;;11.60;99.90;;;;;;5086950;28;20329;-43
2021/10/25 09:30:18;;;;;;;6.95;4.75;;;11.60;99.90;;;;;;5076339;28;20028;-44
2021/10/25 09:32:45;;;;;;;5.70;4.55;;;11.60;99.90;;;;;;5086444;28;20044;-43
2021/10/25 09:35:25;;;;;;;7.63;4.78;;;11.70;99.90;;;;;;5087366;28;20028;-43
2021/10/25 09:37:59;;;;;;;7.43;4.97;;;11.70;99.90;;;;;;5086372;28;20039;-44
2021/10/25 09:40:33;;;;;;;7.13;4.93;;;11.70;99.90;;;;;;5086860;28;20146;-43
2021/10/25 09:43:20;;;;;;;7.28;5.13;;;11.70;99.90;;;;;;5087138;28;20018;-43
2021/10/25 09:45:55;;;;;;;5.68;4.60;;;11.70;99.90;;;;;;5076214;28;20028;-43
2021/10/25 09:51:06;;;;;;;5.47;3.90;;;11.70;99.90;;;;;;5087181;28;20089;-45
2021/10/25 09:53:37;;;;;;;6.43;4.80;;;11.70;99.90;;;;;;5086689;28;20028;-43
2021/10/25 09:56:09;;;;;;;7.03;5.03;;;11.80;99.90;;;;;;5087438;28;20085;-44
2021/10/25 09:58:56;;;;;;;5.80;4.37;;;11.80;99.90;;;;;;5085959;28;20036;-44
2021/10/25 10:01:27;;;;;;;6.30;4.70;;;11.90;99.90;;;;;;5084160;28;20482;-44
2021/10/25 10:03:53;;;;;;;8.88;4.88;;;11.90;99.90;;;;;;5085352;28;20027;-44
2021/10/25 10:06:21;;;;;;;6.55;4.63;;;11.90;99.90;;;;;;5086922;28;20447;-44
2021/10/25 10:08:47;;;;;;;5.90;4.93;;;11.90;99.90;;;;;;5089360;28;20107;-43
2021/10/25 10:11:13;;;;;;;6.47;4.38;;;11.90;99.90;;;;;;5089864;28;20028;-44
2021/10/25 10:13:42;;;;;;;5.63;4.85;;;11.90;99.90;;;;;;5088742;28;20583;-44
2021/10/25 10:16:09;;;;;;;7.63;4.78;;;11.90;99.90;;;;;;5090085;28;20028;-45
2021/10/25 10:18:36;;;;;;;7.38;5.70;;;11.80;99.90;;;;;;5089718;28;20456;-43
2021/10/25 10:21:04;;;;;;;5.47;4.90;;;11.80;99.90;;;;;;5088617;28;20039;-44
2021/10/25 10:23:32;;;;;;;7.03;4.72;;;11.90;99.90;;;;;;5089496;28;20028;-45
2021/10/25 10:26:00;;;;;;;6.68;5.18;;;11.90;99.90;;;;;;5089300;28;20036;-43
2021/10/25 10:28:34;;;;;;;5.20;4.28;;;11.90;99.90;;;;;;5089083;28;20020;-45
2021/10/25 10:31:10;;;;;;;6.15;5.05;;;11.90;99.90;;;;;;5089231;28;20107;-44
2021/10/25 10:33:50;;;;;;;5.05;4.15;;;12.00;99.90;;;;;;5083121;28;20049;-43
2021/10/25 10:36:27;;;;;;;6.40;4.72;;;12.00;99.90;;;;;;5089615;28;20070;-44
2021/10/25 10:39:07;;;;;;;4.80;3.90;;;12.00;99.90;;;;;;5086205;28;20063;-44
2021/10/25 10:41:42;;;;;;;4.72;4.25;;;12.10;99.90;;;;;;5088245;28;20097;-44
2021/10/25 10:44:11;;;;;;;6.70;4.97;;;12.10;99.90;;;;;;5089326;28;20078;-44
2021/10/25 10:46:54;;;;;;;6.47;5.50;;;12.20;99.90;;;;;;5088848;28;20031;-44
2021/10/25 10:49:22;;;;;;;5.93;5.07;;;12.30;99.90;;;;;;5081533;28;20090;-45
2021/10/25 10:52:16;;;;;;;4.88;3.92;;;12.30;99.90;;;;;;5088915;28;20016;-44
2021/10/25 10:57:44;;;;;;;6.90;5.03;;;12.50;99.90;;;;;;5089108;28;20024;-44
2021/10/25 11:00:11;;;;;;;5.95;4.70;;;12.60;99.90;;;;;;5089138;28;20571;-44
2021/10/25 11:02:50;;;;;;;6.22;4.40;;;12.60;99.90;;;;;;5088021;28;20028;-43
2021/10/25 11:05:15;;;;;;;6.53;5.07;;;12.60;99.90;;;;;;5088945;28;20072;-44
2021/10/25 11:07:41;;;;;;;6.07;4.60;;;12.70;99.90;;;;;;5088619;28;20622;-44
2021/10/25 11:10:10;;;;;;;5.55;4.63;;;12.70;99.90;;;;;;5088469;28;20173;-44
2021/10/25 11:12:42;;;;;;;5.65;5.07;;;12.80;99.90;;;;;;5087479;28;20073;-44
2021/10/25 11:15:10;;;;;;;5.43;4.47;;;12.80;99.90;;;;;;5088789;28;20499;-43
2021/10/25 11:17:36;;;;;;;5.40;4.03;;;12.80;99.90;;;;;;5087860;28;20487;-44
2021/10/25 11:20:03;;;;;;;7.32;4.45;;;12.80;99.90;;;;;;5088532;28;20079;-43
2021/10/25 11:22:33;;;;;;;6.72;3.78;;;12.80;99.90;;;;;;5088144;28;20056;-43
2021/10/25 11:25:00;;;;;;;5.13;4.32;;;12.90;99.90;;;;;;5088216;28;20035;-43
2021/10/25 11:27:32;;;;;;;5.70;4.50;;;12.90;99.90;;;;;;5088200;28;20020;-44
2021/10/25 11:30:19;;;;;;;6.47;4.40;;;13.00;99.90;;;;;;5087628;28;20524;-44
2021/10/25 11:32:45;;;;;;;5.55;4.25;;;13.00;99.90;;;;;;5087748;28;20418;-44
2021/10/25 11:35:14;;;;;;;5.45;4.22;;;13.00;99.90;;;;;;5088438;28;20083;-44
2021/10/25 11:37:47;;;;;;;6.47;4.80;;;13.10;99.90;;;;;;5086660;28;20115;-44
2021/10/25 11:40:17;;;;;;;5.20;4.35;;;13.20;99.90;;;;;;5088539;28;20066;-44
2021/10/25 11:42:45;;;;;;;6.05;4.70;;;13.30;99.90;;;;;;5087724;28;20023;-44
2021/10/25 11:45:16;;;;;;;6.57;4.82;;;13.50;99.90;;;;;;5087765;28;20075;-44
2021/10/25 11:47:44;;;;;;;4.95;4.47;;;13.60;99.90;;;;;;5087790;28;20078;-44
2021/10/25 11:50:14;;;;;;;5.97;4.43;;;13.70;99.90;;;;;;5088508;28;20024;-43
2021/10/25 11:52:46;;;;;;;5.20;4.30;;;13.80;99.90;;;;;;5086781;28;20028;-44
2021/10/25 11:55:18;;;;;;;5.55;4.65;;;13.80;99.90;;;;;;5087969;28;20185;-44
2021/10/25 11:57:47;;;;;;;4.03;3.63;;;13.90;99.90;;;;;;5086329;28;20471;-43
2021/10/25 12:00:13;;;;;;;5.25;4.28;;;13.90;99.90;;;;;;5087585;28;20119;-43
2021/10/25 12:02:39;;;;;;;6.32;4.68;;;13.90;99.90;;;;;;5087315;28;20008;-43
2021/10/25 12:05:06;;;;;;;6.97;5.00;;;13.80;99.90;;;;;;5087233;28;20039;-44
2021/10/25 12:07:32;;;;;;;5.75;4.30;;;13.80;99.90;;;;;;5085686;28;20028;-42
2021/10/25 12:10:06;;;;;;;8.27;4.43;;;13.80;99.90;;;;;;5086957;28;20048;-43
2021/10/25 12:12:32;;;;;;;5.07;4.13;;;13.80;99.90;;;;;;5086869;28;20028;-44
2021/10/25 12:15:01;;;;;;;6.50;4.20;;;13.90;99.90;;;;;;5086602;28;20417;-43
2021/10/25 12:17:32;;;;;;;5.68;4.35;;;13.90;99.90;;;;;;5087426;28;20031;-43
2021/10/25 12:20:04;;;;;;;5.20;4.22;;;13.90;99.90;;;;;;5085986;28;20031;-43
2021/10/25 12:22:30;;;;;;;6.82;4.90;;;13.80;99.90;;;;;;5086993;28;20024;-43
2021/10/25 12:24:57;;;;;;;6.60;4.82;;;13.70;99.90;;;;;;5086718;28;20147;-44
2021/10/25 12:27:49;;;;;;;4.55;3.70;;;13.70;99.90;;;;;;5086344;28;20028;-44
2021/10/25 12:30:16;;;;;;;6.45;5.03;;;13.60;99.90;;;;;;5085789;28;20056;-43
2021/10/25 12:32:59;;;;;;;8.00;5.05;;;13.70;99.90;;;;;;5085886;28;20134;-44
2021/10/25 12:35:32;;;;;;;;;;;13.90;99.90;;;;;;5086951;28;20020;-43
2021/10/25 12:38:04;;;;;;;5.63;4.53;;;14.00;99.90;;;;;;5085806;28;20406;-44
2021/10/25 12:40:38;;;;;;;5.43;4.57;;;14.10;99.90;;;;;;5085930;28;20111;-43
2021/10/25 12:43:04;;;;;;;4.55;4.03;;;14.20;99.90;;;;;;5086542;28;20088;-44
2021/10/25 12:45:37;;;;;;;5.38;4.10;;;14.30;99.90;;;;;;5086089;28;20023;-43
2021/10/25 12:48:03;;;;;;;5.07;3.90;;;14.30;99.90;;;;;;5084184;28;20028;-44
2021/10/25 12:50:33;;;;;;;4.93;4.30;;;14.30;99.90;;;;;;5086467;28;20020;-44
2021/10/25 12:53:03;;;;;;;4.38;3.60;;;14.30;99.90;;;;;;5086126;28;20127;-44
2021/10/25 12:55:28;;;;;;;5.18;3.88;;;14.30;99.90;;;;;;5085387;28;20094;-44
2021/10/25 12:57:57;;;;;;;4.80;3.88;;;14.20;99.90;;;;;;5085723;28;20496;-44
2021/10/25 13:00:24;;;;;;;4.43;3.78;;;14.20;99.90;;;;;;5086220;28;20388;-44
2021/10/25 13:02:52;;;;;;;6.35;3.95;;;14.10;99.90;;;;;;5085175;28;20020;-44
2021/10/25 13:05:21;;;;;;;4.55;4.10;;;14.10;99.90;;;;;;5078379;28;20031;-43
2021/10/25 13:07:52;;;;;;;5.43;4.43;;;14.00;99.90;;;;;;5085796;28;20024;-43
2021/10/25 13:10:30;;;;;;;6.00;4.45;;;14.10;99.90;;;;;;5085392;28;20024;-44
2021/10/25 13:12:57;;;;;;;5.25;4.20;;;14.10;99.90;;;;;;5085892;28;20526;-43
2021/10/25 13:15:29;;;;;;;7.05;4.75;;;14.20;99.90;;;;;;5084483;28;20410;-44
2021/10/25 13:17:57;;;;;;;5.75;4.07;;;14.30;99.90;;;;;;5085914;28;20028;-43
2021/10/25 13:20:25;;;;;;;7.15;4.90;;;14.30;99.90;;;;;;5085314;28;20032;-43
2021/10/25 13:22:54;;;;;;;5.28;4.53;;;14.40;99.90;;;;;;5077387;28;20734;-43
2021/10/25 13:25:21;;;;;;;6.35;4.50;;;14.40;99.90;;;;;;5085800;28;20066;-44
2021/10/25 13:27:49;;;;;;;4.95;3.83;;;14.40;99.90;;;;;;5085420;28;20024;-44
2021/10/25 13:30:16;;;;;;;5.32;4.20;;;14.40;99.90;;;;;;5085260;28;20856;-43
2021/10/25 13:32:42;;;;;;;7.90;4.40;;;14.50;99.90;;;;;;5085514;28;20685;-44
2021/10/25 13:35:08;;;;;;;5.60;4.13;;;14.60;99.90;;;;;;5086461;28;20074;-44
2021/10/25 13:37:33;;;;;;;5.47;3.50;;;14.60;99.90;;;;;;5088738;28;20028;-43
2021/10/25 13:39:59;;;;;;;7.43;4.20;;;14.60;99.90;;;;;;5090275;28;20490;-43
2021/10/25 13:42:25;;;;;;;5.53;4.35;;;14.70;99.90;;;;;;5089729;28;20028;-44
2021/10/25 13:44:51;;;;;;;5.28;4.40;;;14.60;99.90;;;;;;5089111;28;20048;-43
2021/10/25 13:47:17;;;;;;;4.90;3.85;;;14.60;99.90;;;;;;5089401;28;20053;-44
2021/10/25 13:49:44;;;;;;;6.82;5.10;;;14.70;99.90;;;;;;5088111;28;20048;-44
2021/10/25 13:52:10;;;;;;;6.78;4.93;;;14.70;99.90;;;;;;5089052;28;20081;-44
2021/10/25 13:54:37;;;;;;;5.60;4.78;;;14.60;99.90;;;;;;5089096;28;20848;-44
2021/10/25 13:57:09;;;;;;;6.55;4.30;;;14.70;99.90;;;;;;5089121;28;20768;-44
2021/10/25 13:59:37;;;;;;;4.93;4.15;;;14.70;99.90;;;;;;5088796;28;20115;-43
2021/10/25 14:02:07;;;;;;;7.65;4.63;;;14.80;99.90;;;;;;5089530;28;20391;-43
2021/10/25 14:04:38;;;;;;;4.70;4.18;;;14.80;99.90;;;;;;5086963;28;20020;-44
2021/10/25 14:07:05;;;;;;;6.03;4.40;;;14.80;99.90;;;;;;5089620;28;20055;-44
2021/10/25 14:09:30;;;;;;;6.85;4.95;;;14.90;99.90;;;;;;5089445;28;20031;-43
2021/10/25 14:11:59;;;;;;;5.63;3.92;;;14.90;99.90;;;;;;5088372;28;20019;-44
2021/10/25 14:14:26;;;;;;;5.13;4.00;;;14.90;99.90;;;;;;5089215;28;20051;-44
2021/10/25 14:16:55;;;;;;;6.55;4.80;;;15.00;99.90;;;;;;5088696;28;20030;-44
2021/10/25 14:19:23;;;;;;;6.05;4.35;;;14.90;99.90;;;;;;5088194;28;20095;-43
2021/10/25 14:21:52;;;;;;;6.43;4.88;;;14.90;99.90;;;;;;5089330;28;20043;-44
2021/10/25 14:24:19;;;;;;;6.57;4.60;;;14.90;99.90;;;;;;5089528;28;20016;-44
2021/10/25 14:26:45;;;;;;;6.70;4.60;;;14.90;99.90;;;;;;5087994;28;20055;-43
2021/10/25 14:29:12;;;;;;;4.97;4.47;;;14.90;99.90;;;;;;5089451;28;20026;-44